createdAt,value
2018-04-28T00:02:19.078Z,10.05
2018-04-28T00:04:45.406Z,10.21
2018-04-28T00:07:11.744Z,9.96
2018-04-28T00:09:38.198Z,9.82
2018-04-28T00:12:04.615Z,9.86
2018-04-28T00:14:30.947Z,10.17
2018-04-28T00:16:57.588Z,10.31
2018-04-28T00:19:24.930Z,10.06
2018-04-28T00:21:51.263Z,9.71
2018-04-28T00:24:20.397Z,9.53
2018-04-28T00:26:48.654Z,9.24
2018-04-28T00:29:15.352Z,9.41
2018-04-28T00:31:57.414Z,9.69
2018-04-28T00:34:25.579Z,9.52
2018-04-28T00:37:01.868Z,9.43
2018-04-28T00:39:28.249Z,9.14
2018-04-28T00:41:55.401Z,8.82
2018-04-28T00:44:21.832Z,8.84
2018-04-28T00:46:55.117Z,8.84
2018-04-28T00:49:22.437Z,8.83
2018-04-28T00:51:48.914Z,8.95
2018-04-28T00:54:16.197Z,9.22
2018-04-28T00:56:56.594Z,9.19
2018-04-28T00:59:22.916Z,9.35
2018-04-28T01:01:51.146Z,9.30
2018-04-28T01:04:19.241Z,8.90
2018-04-28T01:06:45.914Z,8.80
2018-04-28T01:09:13.078Z,8.82
2018-04-28T01:11:39.394Z,9.06
2018-04-28T01:14:10.442Z,9.13
2018-04-28T01:16:40.414Z,9.15
2018-04-28T01:22:02.103Z,9.45
2018-04-28T01:24:34.579Z,9.51
2018-04-28T01:27:10.093Z,9.26
2018-04-28T01:32:34.018Z,9.40
2018-04-28T01:35:07.557Z,9.24
2018-04-28T01:37:44.426Z,9.27
2018-04-28T01:40:11.895Z,9.35
2018-04-28T01:45:36.743Z,9.34
2018-04-28T01:48:09.054Z,9.27
2018-04-28T01:50:49.103Z,9.13
2018-04-28T01:53:15.530Z,8.74
2018-04-28T01:55:55.964Z,8.71
2018-04-28T01:58:23.304Z,8.73
2018-04-28T02:00:53.314Z,8.33
2018-04-28T02:03:24.323Z,7.97
2018-04-28T02:09:11.182Z,8.17
2018-04-28T02:11:43.548Z,8.39
2018-04-28T02:17:11.409Z,8.66
2018-04-28T02:19:57.110Z,8.77
2018-04-28T02:25:42.619Z,8.35
2018-04-28T02:31:15.151Z,8.11
2018-04-28T02:33:52.450Z,8.12
2018-04-28T02:36:21.520Z,7.98
2018-04-28T02:38:52.617Z,8.00
2018-04-28T02:41:19.948Z,7.94
2018-04-28T02:43:53.031Z,8.19
2018-04-28T02:46:24.022Z,8.40
2018-04-28T02:49:13.068Z,8.51
2018-04-28T02:51:58.183Z,8.49
2018-04-28T02:54:25.405Z,8.55
2018-04-28T02:57:02.333Z,8.49
2018-04-28T02:59:33.571Z,8.19
2018-04-28T03:04:57.171Z,7.88
2018-04-28T03:10:26.282Z,7.90
2018-04-28T03:12:52.711Z,7.92
2018-04-28T03:15:19.038Z,7.97
2018-04-28T03:17:48.117Z,7.88
2018-04-28T03:20:14.506Z,8.12
2018-04-28T03:22:45.627Z,8.20
2018-04-28T03:25:16.998Z,8.36
2018-04-28T03:27:55.548Z,8.09
2018-04-28T03:30:28.868Z,8.06
2018-04-28T03:32:55.257Z,8.18
2018-04-28T03:35:21.591Z,8.20
2018-04-28T03:37:52.851Z,8.37
2018-04-28T03:40:19.366Z,8.10
2018-04-28T03:42:57.951Z,7.78
2018-04-28T03:45:28.324Z,7.77
2018-04-28T03:51:24.059Z,7.74
2018-04-28T03:53:56.286Z,7.93
2018-04-28T03:56:25.383Z,7.83
2018-04-28T03:59:09.650Z,7.83
2018-04-28T04:01:48.100Z,7.76
2018-04-28T04:04:35.026Z,7.64
2018-04-28T04:07:06.960Z,7.63
2018-04-28T04:09:33.204Z,7.67
2018-04-28T04:12:04.161Z,7.70
2018-04-28T04:14:39.404Z,7.85
2018-04-28T04:20:24.841Z,8.03
2018-04-28T04:26:09.895Z,9.08
2018-04-28T04:28:57.883Z,9.47
2018-04-28T04:31:41.843Z,9.55
2018-04-28T04:34:10.960Z,9.55
2018-04-28T04:36:38.979Z,9.27
2018-04-28T04:39:10.185Z,8.97
2018-04-28T04:41:45.170Z,8.96
2018-04-28T04:44:16.280Z,9.10
2018-04-28T04:46:59.106Z,9.04
2018-04-28T04:49:28.244Z,9.05
2018-04-28T04:55:11.942Z,9.07
2018-04-28T04:57:47.020Z,9.17
2018-04-28T05:03:28.691Z,10.17
2018-04-28T05:06:16.992Z,10.44
2018-04-28T05:09:04.157Z,10.73
2018-04-28T05:11:39.540Z,11.07
2018-04-28T05:14:36.403Z,11.38
2018-04-28T05:17:12.780Z,11.55
2018-04-28T05:20:04.566Z,11.87
2018-04-28T05:22:42.838Z,12.39
2018-04-28T05:25:20.054Z,12.85
2018-04-28T05:27:59.036Z,13.18
2018-04-28T05:30:43.255Z,13.34
2018-04-28T05:36:29.723Z,12.79
2018-04-28T05:38:58.790Z,12.62
2018-04-28T05:44:51.476Z,13.01
2018-04-28T05:47:29.790Z,13.13
2018-04-28T05:53:08.297Z,13.63
2018-04-28T05:55:47.579Z,13.93
2018-04-28T05:58:25.909Z,14.28
2018-04-28T06:00:58.218Z,14.59
2018-04-28T06:03:30.191Z,14.92
2018-04-28T06:09:04.979Z,15.10
2018-04-28T06:11:39.232Z,15.26
2018-04-28T06:14:11.687Z,15.28
2018-04-28T06:16:41.724Z,15.70
2018-04-28T06:22:25.056Z,16.14
2018-04-28T06:24:51.271Z,16.65
2018-04-28T06:27:17.631Z,16.55
2018-04-28T06:29:43.872Z,16.38
2018-04-28T06:32:10.135Z,16.60
2018-04-28T06:34:36.590Z,16.87
2018-04-28T06:37:02.977Z,16.87
2018-04-28T06:39:29.246Z,16.81
2018-04-28T06:41:55.509Z,16.86
2018-04-28T06:44:21.773Z,16.94
2018-04-28T06:46:48.049Z,17.12
2018-04-28T06:49:14.363Z,17.28
2018-04-28T06:51:40.628Z,17.21
2018-04-28T06:54:06.848Z,17.80
2018-04-28T06:56:33.108Z,17.88
2018-04-28T06:58:59.467Z,17.76
2018-04-28T07:01:25.707Z,17.89
2018-04-28T07:03:51.946Z,18.03
2018-04-28T07:06:18.184Z,18.17
2018-04-28T07:08:44.379Z,18.28
2018-04-28T07:11:10.624Z,18.34
2018-04-28T07:13:39.506Z,18.66
2018-04-28T07:16:05.999Z,18.60
2018-04-28T07:18:32.233Z,19.14
2018-04-28T07:20:58.678Z,18.87
2018-04-28T07:23:25.192Z,18.81
2018-04-28T07:25:51.468Z,19.03
2018-04-28T07:28:17.695Z,18.45
2018-04-28T07:30:43.990Z,18.78
2018-04-28T07:33:10.235Z,19.24
2018-04-28T07:35:36.495Z,19.30
2018-04-28T07:38:04.065Z,19.41
2018-04-28T07:40:30.307Z,19.79
2018-04-28T07:42:56.546Z,19.78
2018-04-28T07:45:22.878Z,19.77
2018-04-28T07:47:49.145Z,19.96
2018-04-28T07:50:15.386Z,19.83
2018-04-28T07:52:41.654Z,19.55
2018-04-28T07:55:07.935Z,19.43
2018-04-28T07:57:34.179Z,19.81
2018-04-28T08:00:00.406Z,19.71
2018-04-28T08:02:26.689Z,20.04
2018-04-28T08:04:53.048Z,20.32
2018-04-28T08:07:19.299Z,20.62
2018-04-28T08:09:45.598Z,20.67
2018-04-28T08:12:11.950Z,20.52
2018-04-28T08:14:38.201Z,20.83
2018-04-28T08:17:04.443Z,21.63
2018-04-28T08:19:30.789Z,21.18
2018-04-28T08:21:57.102Z,20.94
2018-04-28T08:24:23.340Z,21.60
2018-04-28T08:26:49.752Z,22.09
2018-04-28T08:29:16.120Z,22.65
2018-04-28T08:31:42.531Z,23.05
2018-04-28T08:34:08.935Z,23.60
2018-04-28T08:36:35.248Z,23.75
2018-04-28T08:39:01.537Z,23.54
2018-04-28T08:41:28.217Z,23.30
2018-04-28T08:43:54.611Z,23.56
2018-04-28T08:46:20.898Z,23.96
2018-04-28T08:48:47.149Z,24.24
2018-04-28T08:51:13.372Z,23.98
2018-04-28T08:53:39.634Z,23.99
2018-04-28T08:56:05.979Z,24.57
2018-04-28T08:58:32.274Z,25.03
2018-04-28T09:00:58.549Z,25.28
2018-04-28T09:03:24.900Z,25.11
2018-04-28T09:05:51.160Z,24.67
2018-04-28T09:08:17.521Z,25.17
2018-04-28T09:10:43.769Z,25.41
2018-04-28T09:13:10.081Z,25.80
2018-04-28T09:15:36.294Z,25.53
2018-04-28T09:18:02.545Z,25.75
2018-04-28T09:20:28.925Z,25.54
2018-04-28T09:22:55.159Z,25.65
2018-04-28T09:25:21.364Z,26.31
2018-04-28T09:27:47.670Z,26.72
2018-04-28T09:30:13.955Z,26.64
2018-04-28T09:32:40.146Z,25.91
2018-04-28T09:35:06.339Z,26.11
2018-04-28T09:37:32.944Z,25.89
2018-04-28T09:39:59.182Z,25.95
2018-04-28T09:42:25.449Z,26.08
2018-04-28T09:44:51.625Z,26.58
2018-04-28T09:47:17.809Z,26.37
2018-04-28T09:49:44.533Z,26.36
2018-04-28T09:52:10.906Z,26.29
2018-04-28T09:54:37.098Z,26.42
2018-04-28T09:57:03.485Z,26.82
2018-04-28T09:59:29.674Z,27.31
2018-04-28T10:01:57.944Z,27.57
2018-04-28T10:04:24.177Z,27.35
2018-04-28T10:06:50.377Z,27.39
2018-04-28T10:09:16.622Z,27.16
2018-04-28T10:11:42.904Z,27.87
2018-04-28T10:14:09.210Z,27.90
2018-04-28T10:16:35.391Z,27.70
2018-04-28T10:19:01.574Z,27.61
2018-04-28T10:21:27.803Z,27.90
2018-04-28T10:23:53.998Z,28.60
2018-04-28T10:26:20.197Z,28.92
2018-04-28T10:28:46.547Z,28.47
2018-04-28T10:31:12.786Z,28.99
2018-04-28T10:33:39.068Z,29.32
2018-04-28T10:36:05.271Z,28.56
2018-04-28T10:38:31.458Z,27.99
2018-04-28T10:40:57.664Z,27.34
2018-04-28T10:43:23.887Z,27.17
2018-04-28T10:45:50.087Z,27.08
2018-04-28T10:48:16.300Z,26.94
2018-04-28T10:50:42.595Z,26.86
2018-04-28T10:53:08.786Z,27.03
2018-04-28T10:55:35.066Z,27.91
2018-04-28T10:58:01.272Z,28.03
2018-04-28T11:00:27.470Z,28.68
2018-04-28T11:02:53.704Z,28.61
2018-04-28T11:05:19.894Z,28.87
2018-04-28T11:07:46.086Z,28.98
2018-04-28T11:10:12.315Z,29.29
2018-04-28T11:12:38.505Z,29.43
2018-04-28T11:15:04.716Z,29.72
2018-04-28T11:17:31.000Z,29.60
2018-04-28T11:19:57.267Z,29.78
2018-04-28T11:22:23.451Z,29.54
2018-04-28T11:24:49.780Z,29.93
2018-04-28T11:27:15.976Z,30.23
2018-04-28T11:29:42.177Z,30.44
2018-04-28T11:32:08.418Z,30.30
2018-04-28T11:34:34.627Z,30.57
2018-04-28T11:37:00.925Z,29.83
2018-04-28T11:39:27.121Z,29.49
2018-04-28T11:41:53.347Z,29.03
2018-04-28T11:44:19.604Z,29.02
2018-04-28T11:46:45.790Z,29.22
2018-04-28T11:49:11.988Z,30.15
2018-04-28T11:51:38.234Z,29.55
2018-04-28T11:54:04.426Z,29.84
2018-04-28T11:56:30.619Z,29.86
2018-04-28T11:58:57.187Z,30.15
2018-04-28T12:01:23.345Z,29.70
2018-04-28T12:03:49.563Z,29.03
2018-04-28T12:06:15.854Z,28.37
2018-04-28T12:08:42.057Z,28.11
2018-04-28T12:11:08.251Z,27.83
2018-04-28T12:13:34.485Z,27.77
2018-04-28T12:16:00.676Z,27.33
2018-04-28T12:18:26.863Z,27.00
2018-04-28T12:20:53.154Z,27.13
2018-04-28T12:23:19.334Z,26.90
2018-04-28T12:25:45.627Z,26.73
2018-04-28T12:28:11.825Z,26.42
2018-04-28T12:30:38.006Z,26.29
2018-04-28T12:33:04.233Z,25.98
2018-04-28T12:35:30.428Z,25.86
2018-04-28T12:37:56.720Z,25.61
2018-04-28T12:40:22.931Z,25.72
2018-04-28T12:42:49.723Z,25.43
2018-04-28T12:45:15.928Z,25.40
2018-04-28T12:47:42.138Z,25.49
2018-04-28T12:50:08.373Z,25.24
2018-04-28T12:52:34.555Z,25.20
2018-04-28T12:55:00.731Z,25.04
2018-04-28T12:57:27.445Z,25.17
2018-04-28T12:59:53.650Z,24.54
2018-04-28T13:02:19.891Z,24.60
2018-04-28T13:04:46.094Z,24.29
2018-04-28T13:07:12.378Z,24.20
2018-04-28T13:09:38.564Z,24.29
2018-04-28T13:12:04.744Z,24.41
2018-04-28T13:14:31.095Z,24.59
2018-04-28T13:16:57.344Z,24.49
2018-04-28T13:19:23.570Z,24.53
2018-04-28T13:21:49.751Z,24.52
2018-04-28T13:24:15.990Z,24.38
2018-04-28T13:26:42.242Z,24.39
2018-04-28T13:29:08.454Z,24.17
2018-04-28T13:31:34.658Z,24.53
2018-04-28T13:34:00.974Z,24.73
2018-04-28T13:36:27.166Z,24.78
2018-04-28T13:38:53.353Z,24.66
2018-04-28T13:41:19.655Z,24.90
2018-04-28T13:43:45.853Z,25.10
2018-04-28T13:46:12.096Z,24.93
2018-04-28T13:48:38.281Z,25.26
2018-04-28T13:51:04.575Z,24.64
2018-04-28T13:53:30.767Z,24.23
2018-04-28T13:55:57.065Z,24.32
2018-04-28T13:58:23.242Z,24.23
2018-04-28T14:00:49.454Z,24.51
2018-04-28T14:03:15.648Z,25.40
2018-04-28T14:05:41.870Z,25.70
2018-04-28T14:08:08.057Z,26.45
2018-04-28T14:10:34.240Z,26.67
2018-04-28T14:13:00.801Z,26.89
2018-04-28T14:15:27.043Z,27.08
2018-04-28T14:17:53.324Z,27.12
2018-04-28T14:20:19.655Z,27.20
2018-04-28T14:22:45.848Z,27.26
2018-04-28T14:25:12.075Z,27.01
2018-04-28T14:27:38.355Z,26.96
2018-04-28T14:30:04.716Z,26.85
2018-04-28T14:32:33.906Z,26.93
2018-04-28T14:35:00.151Z,27.39
2018-04-28T14:37:26.371Z,27.48
2018-04-28T14:39:52.557Z,26.59
2018-04-28T14:42:18.934Z,26.69
2018-04-28T14:44:45.145Z,26.27
2018-04-28T14:47:11.346Z,26.28
2018-04-28T14:49:37.687Z,25.82
2018-04-28T14:52:03.996Z,25.78
2018-04-28T14:54:30.181Z,25.85
2018-04-28T14:56:56.439Z,26.25
2018-04-28T14:59:22.644Z,26.99
2018-04-28T15:01:48.867Z,27.10
2018-04-28T15:04:15.147Z,27.02
2018-04-28T15:06:41.326Z,26.69
2018-04-28T15:09:07.514Z,26.96
2018-04-28T15:11:33.729Z,26.47
2018-04-28T15:13:59.936Z,26.23
2018-04-28T15:16:26.130Z,25.81
2018-04-28T15:18:52.450Z,25.29
2018-04-28T15:21:18.695Z,24.93
2018-04-28T15:23:44.877Z,24.63
2018-04-28T15:26:11.143Z,24.54
2018-04-28T15:28:37.379Z,24.52
2018-04-28T15:31:03.550Z,24.65
2018-04-28T15:33:29.836Z,24.68
2018-04-28T15:35:56.029Z,24.82
2018-04-28T15:38:22.262Z,24.69
2018-04-28T15:40:48.520Z,24.29
2018-04-28T15:43:14.722Z,24.16
2018-04-28T15:45:40.901Z,24.11
2018-04-28T15:48:07.363Z,24.01
2018-04-28T15:50:33.613Z,23.80
2018-04-28T15:52:59.791Z,23.59
2018-04-28T15:55:26.019Z,23.43
2018-04-28T15:57:52.485Z,23.21
2018-04-28T16:00:18.718Z,23.17
2018-04-28T16:02:44.957Z,23.17
2018-04-28T16:05:11.610Z,23.02
2018-04-28T16:07:37.839Z,22.93
2018-04-28T16:10:04.651Z,22.89
2018-04-28T16:12:34.132Z,22.88
2018-04-28T16:15:02.130Z,22.68
2018-04-28T16:17:29.287Z,22.71
2018-04-28T16:19:55.472Z,22.57
2018-04-28T16:22:21.709Z,22.52
2018-04-28T16:24:47.915Z,22.53
2018-04-28T16:27:14.186Z,22.42
2018-04-28T16:29:40.392Z,22.35
2018-04-28T16:32:06.826Z,22.25
2018-04-28T16:34:33.043Z,22.21
2018-04-28T16:36:59.655Z,22.17
2018-04-28T16:39:26.828Z,22.12
2018-04-28T16:41:53.224Z,22.10
2018-04-28T16:44:19.478Z,21.85
2018-04-28T16:46:45.739Z,21.70
2018-04-28T16:49:12.977Z,21.64
2018-04-28T16:51:39.431Z,21.81
2018-04-28T16:54:06.001Z,21.68
2018-04-28T16:56:32.368Z,21.61
2018-04-28T16:58:58.590Z,21.41
2018-04-28T17:01:24.870Z,21.14
2018-04-28T17:03:51.046Z,21.04
2018-04-28T17:06:17.245Z,20.99
2018-04-28T17:08:43.470Z,20.84
2018-04-28T17:11:09.655Z,20.45
2018-04-28T17:13:35.943Z,20.43
2018-04-28T17:16:02.232Z,20.43
2018-04-28T17:18:28.440Z,20.19
2018-04-28T17:20:54.664Z,20.12
2018-04-28T17:23:20.940Z,19.98
2018-04-28T17:25:47.126Z,19.89
2018-04-28T17:28:13.345Z,19.82
2018-04-28T17:30:39.586Z,19.76
2018-04-28T17:33:05.790Z,19.71
2018-04-28T17:35:31.968Z,19.66
2018-04-28T17:37:58.197Z,19.69
2018-04-28T17:40:27.587Z,19.69
2018-04-28T17:42:53.878Z,19.65
2018-04-28T17:45:20.352Z,19.55
2018-04-28T17:47:46.542Z,19.48
2018-04-28T17:50:12.827Z,19.37
2018-04-28T17:52:39.024Z,19.28
2018-04-28T17:55:05.896Z,19.13
2018-04-28T17:57:32.216Z,18.97
2018-04-28T17:59:58.419Z,18.84
2018-04-28T18:02:24.761Z,18.74
2018-04-28T18:04:51.010Z,18.72
2018-04-28T18:07:17.400Z,18.72
2018-04-28T18:09:43.771Z,18.66
2018-04-28T18:12:09.948Z,18.67
2018-04-28T18:14:36.190Z,18.71
2018-04-28T18:17:02.473Z,18.67
2018-04-28T18:19:28.658Z,18.66
2018-04-28T18:21:54.833Z,18.57
2018-04-28T18:24:21.144Z,18.59
2018-04-28T18:26:47.515Z,18.70
2018-04-28T18:29:13.709Z,18.55
2018-04-28T18:34:38.764Z,18.56
2018-04-28T18:37:05.458Z,18.61
2018-04-28T18:39:31.743Z,18.51
2018-04-28T18:41:58.097Z,18.48
2018-04-28T18:44:24.859Z,18.21
2018-04-28T18:46:51.169Z,17.64
2018-04-28T18:49:17.433Z,17.36
2018-04-28T18:51:43.835Z,17.11
2018-04-28T18:54:10.113Z,17.13
2018-04-28T18:56:37.371Z,17.39
2018-04-28T18:59:03.682Z,17.58
2018-04-28T19:01:30.236Z,17.73
2018-04-28T19:03:56.567Z,17.78
2018-04-28T19:06:23.317Z,17.62
2018-04-28T19:08:49.692Z,17.65
2018-04-28T19:11:16.047Z,17.53
2018-04-28T19:13:42.743Z,17.61
2018-04-28T19:16:09.034Z,17.59
2018-04-28T19:18:35.481Z,17.46
2018-04-28T19:21:01.778Z,17.44
2018-04-28T19:23:28.168Z,17.44
2018-04-28T19:25:54.514Z,17.44
2018-04-28T19:28:20.967Z,17.49
2018-04-28T19:30:47.774Z,17.66
2018-04-28T19:33:14.088Z,17.78
2018-04-28T19:35:40.646Z,17.86
2018-04-28T19:38:07.341Z,17.80
2018-04-28T19:40:33.676Z,17.95
2018-04-28T19:42:59.995Z,17.92
2018-04-28T19:45:26.339Z,17.71
2018-04-28T19:47:52.745Z,17.73
2018-04-28T19:50:19.674Z,17.73
2018-04-28T19:52:46.172Z,17.90
2018-04-28T19:55:12.455Z,18.07
2018-04-28T19:57:38.777Z,18.11
2018-04-28T20:00:05.191Z,18.00
2018-04-28T20:02:31.638Z,17.71
2018-04-28T20:04:58.024Z,17.60
2018-04-28T20:07:24.332Z,17.73
2018-04-28T20:09:50.724Z,17.59
2018-04-28T20:12:17.027Z,17.55
2018-04-28T20:14:43.306Z,17.43
2018-04-28T20:17:09.635Z,17.45
2018-04-28T20:19:35.923Z,17.49
2018-04-28T20:22:14.426Z,17.57
2018-04-28T20:24:52.797Z,17.40
2018-04-28T20:27:19.599Z,17.25
2018-04-28T20:29:45.868Z,17.21
2018-04-28T20:32:12.138Z,17.19
2018-04-28T20:34:38.453Z,17.31
2018-04-28T20:37:04.761Z,17.31
2018-04-28T20:39:31.030Z,17.27
2018-04-28T20:41:57.302Z,17.25
2018-04-28T20:44:23.680Z,17.18
2018-04-28T20:46:50.022Z,17.17
2018-04-28T20:49:16.334Z,17.03
2018-04-28T20:51:42.597Z,16.76
2018-04-28T20:54:08.915Z,16.65
2018-04-28T20:56:35.588Z,16.73
2018-04-28T20:59:01.866Z,16.71
2018-04-28T21:01:28.290Z,16.75
2018-04-28T21:03:54.590Z,16.75
2018-04-28T21:06:20.865Z,16.67
2018-04-28T21:08:47.182Z,16.72
2018-04-28T21:11:13.545Z,16.48
2018-04-28T21:13:39.834Z,16.32
2018-04-28T21:16:06.111Z,16.41
2018-04-28T21:18:32.443Z,16.41
2018-04-28T21:20:59.083Z,16.43
2018-04-28T21:23:25.359Z,16.39
2018-04-28T21:25:51.686Z,16.20
2018-04-28T21:28:17.967Z,16.22
2018-04-28T21:30:44.271Z,16.24
2018-04-28T21:33:10.853Z,16.16
2018-04-28T21:35:37.124Z,16.08
2018-04-28T21:38:03.387Z,16.07
2018-04-28T21:40:29.744Z,16.03
2018-04-28T21:42:56.008Z,16.08
2018-04-28T21:45:22.280Z,16.10
2018-04-28T21:47:48.672Z,16.06
2018-04-28T21:50:15.030Z,16.07
2018-04-28T21:52:41.283Z,16.01
2018-04-28T21:55:07.549Z,15.91
2018-04-28T21:57:34.727Z,15.72
2018-04-28T22:00:01.139Z,15.48
2018-04-28T22:02:27.442Z,15.42
2018-04-28T22:04:53.781Z,15.49
2018-04-28T22:07:20.059Z,15.60
2018-04-28T22:09:46.308Z,15.65
2018-04-28T22:12:12.686Z,15.56
2018-04-28T22:14:38.966Z,15.43
2018-04-28T22:17:05.726Z,15.53
2018-04-28T22:19:32.019Z,15.48
2018-04-28T22:21:58.316Z,15.36
2018-04-28T22:24:24.646Z,15.23
2018-04-28T22:26:50.917Z,15.21
2018-04-28T22:29:17.209Z,15.27
2018-04-28T22:31:43.581Z,15.13
2018-04-28T22:34:09.877Z,15.04
2018-04-28T22:36:36.151Z,15.05
2018-04-28T22:39:02.583Z,15.08
2018-04-28T22:41:28.878Z,15.02
2018-04-28T22:43:55.213Z,14.96
2018-04-28T22:46:21.466Z,14.90
2018-04-28T22:48:47.838Z,14.85
2018-04-28T22:51:14.110Z,14.81
2018-04-28T22:53:40.475Z,14.44
2018-04-28T22:56:06.960Z,14.45
2018-04-28T22:58:33.280Z,14.55
2018-04-28T23:00:59.602Z,14.49
2018-04-28T23:03:25.887Z,14.35
2018-04-28T23:05:52.270Z,14.34
2018-04-28T23:08:18.621Z,14.28
2018-04-28T23:10:48.290Z,14.25
2018-04-28T23:13:14.580Z,14.25
2018-04-28T23:15:40.868Z,14.23
2018-04-28T23:18:07.315Z,14.08
2018-04-28T23:20:33.624Z,13.70
2018-04-28T23:22:59.879Z,13.85
2018-04-28T23:25:26.188Z,13.77
2018-04-28T23:27:52.494Z,13.53
2018-04-28T23:30:18.784Z,13.52
2018-04-28T23:32:45.181Z,13.41
2018-04-28T23:35:11.483Z,13.44
2018-04-28T23:37:37.757Z,13.41
2018-04-28T23:40:04.275Z,13.45
2018-04-28T23:42:30.572Z,13.34
2018-04-28T23:44:56.911Z,13.28
2018-04-28T23:47:23.167Z,13.30
2018-04-28T23:49:49.497Z,13.30
2018-04-28T23:52:15.819Z,13.16
2018-04-28T23:54:42.217Z,12.90
2018-04-28T23:57:08.518Z,12.87
2018-04-28T23:59:34.792Z,12.86
